createdAt,value
2023-03-16T00:01:38.159Z,57.57
2023-03-16T00:04:41.261Z,57.66
2023-03-16T00:07:44.409Z,57.67
2023-03-16T00:10:48.060Z,57.70
2023-03-16T00:13:51.639Z,57.85
2023-03-16T00:16:54.765Z,57.84
2023-03-16T00:19:58.030Z,57.75
2023-03-16T00:23:02.723Z,57.89
2023-03-16T00:26:08.218Z,57.87
2023-03-16T00:29:12.027Z,57.88
2023-03-16T00:32:20.800Z,57.87
2023-03-16T00:35:25.509Z,57.87
2023-03-16T00:38:31.265Z,57.96
2023-03-16T00:41:38.138Z,57.95
2023-03-16T00:44:42.138Z,57.86
2023-03-16T00:47:45.322Z,57.94
2023-03-16T00:50:49.511Z,57.99
2023-03-16T00:53:52.671Z,57.97
2023-03-16T00:56:56.301Z,58.01
2023-03-16T01:00:00.184Z,57.94
2023-03-16T01:03:03.557Z,57.89
2023-03-16T01:06:12.898Z,58.13
2023-03-16T01:09:16.074Z,58.03
2023-03-16T01:12:20.186Z,58.04
2023-03-16T01:15:23.230Z,58.14
2023-03-16T01:18:27.850Z,58.13
2023-03-16T01:21:33.725Z,58.29
2023-03-16T01:24:37.790Z,58.23
2023-03-16T01:27:43.116Z,58.15
2023-03-16T01:30:46.267Z,58.12
2023-03-16T01:33:51.318Z,58.09
2023-03-16T01:36:57.926Z,58.23
2023-03-16T01:40:06.876Z,58.10
2023-03-16T01:43:11.669Z,58.06
2023-03-16T01:46:24.056Z,58.10
2023-03-16T01:49:33.506Z,58.13
2023-03-16T01:52:38.685Z,58.30
2023-03-16T01:55:42.631Z,58.23
2023-03-16T01:58:46.980Z,58.20
2023-03-16T02:01:52.036Z,58.23
2023-03-16T02:05:02.115Z,58.46
2023-03-16T02:08:06.690Z,58.37
2023-03-16T02:11:10.385Z,58.26
2023-03-16T02:14:21.469Z,58.34
2023-03-16T02:17:27.887Z,58.36
2023-03-16T02:20:42.657Z,58.31
2023-03-16T02:23:47.097Z,58.27
2023-03-16T02:26:57.660Z,58.34
2023-03-16T02:30:08.354Z,58.36
2023-03-16T02:33:21.323Z,58.34
2023-03-16T02:36:24.850Z,58.24
2023-03-16T02:39:28.321Z,58.30
2023-03-16T02:42:31.847Z,58.28
2023-03-16T02:45:55.059Z,58.19
2023-03-16T02:49:17.828Z,58.38
2023-03-16T02:52:21.633Z,58.37
2023-03-16T02:55:24.807Z,58.32
2023-03-16T02:58:29.772Z,58.46
2023-03-16T03:01:34.946Z,58.43
2023-03-16T03:04:38.302Z,58.43
2023-03-16T03:07:42.751Z,58.50
2023-03-16T03:10:46.266Z,58.53
2023-03-16T03:13:49.772Z,58.54
2023-03-16T03:16:56.036Z,58.45
2023-03-16T03:20:02.409Z,58.46
2023-03-16T03:23:05.671Z,58.54
2023-03-16T03:26:08.774Z,58.56
2023-03-16T03:29:12.646Z,58.64
2023-03-16T03:32:16.558Z,58.75
2023-03-16T03:35:21.372Z,58.74
2023-03-16T03:38:25.914Z,58.72
2023-03-16T03:41:30.601Z,58.77
2023-03-16T03:44:37.143Z,58.77
2023-03-16T03:47:41.477Z,58.69
2023-03-16T03:50:46.170Z,58.68
2023-03-16T03:53:59.942Z,58.73
2023-03-16T03:57:21.948Z,58.76
2023-03-16T04:00:25.892Z,58.90
2023-03-16T04:03:29.326Z,58.98
2023-03-16T04:06:32.588Z,59.11
2023-03-16T04:09:36.214Z,59.11
2023-03-16T04:12:39.522Z,59.09
2023-03-16T04:15:47.022Z,59.03
2023-03-16T04:18:57.878Z,59.16
2023-03-16T04:22:01.628Z,59.15
2023-03-16T04:25:05.285Z,59.20
2023-03-16T04:28:09.022Z,59.22
2023-03-16T04:31:14.234Z,59.15
2023-03-16T04:34:24.930Z,59.19
2023-03-16T04:37:29.977Z,59.19
2023-03-16T04:40:33.159Z,59.12
2023-03-16T04:43:40.942Z,59.15
2023-03-16T04:46:53.763Z,59.14
2023-03-16T04:49:57.440Z,59.08
2023-03-16T04:53:02.187Z,59.20
2023-03-16T04:56:07.518Z,59.23
2023-03-16T04:59:11.950Z,59.23
2023-03-16T05:02:22.467Z,59.12
2023-03-16T05:05:26.048Z,59.28
2023-03-16T05:08:29.194Z,59.37
2023-03-16T05:11:32.337Z,59.27
2023-03-16T05:14:36.358Z,59.35
2023-03-16T05:17:57.923Z,59.29
2023-03-16T05:21:01.984Z,59.36
2023-03-16T05:24:12.499Z,59.49
2023-03-16T05:27:16.041Z,59.55
2023-03-16T05:30:20.152Z,59.61
2023-03-16T05:33:23.625Z,59.59
2023-03-16T05:36:31.386Z,59.82
2023-03-16T05:39:41.166Z,60.01
2023-03-16T05:42:49.379Z,60.02
2023-03-16T05:45:53.174Z,60.19
2023-03-16T05:48:56.585Z,60.26
2023-03-16T05:52:00.512Z,60.29
2023-03-16T05:55:05.958Z,60.51
2023-03-16T05:58:09.256Z,60.93
2023-03-16T06:01:13.524Z,61.16
2023-03-16T06:04:17.999Z,61.10
2023-03-16T06:07:21.358Z,61.31
2023-03-16T06:10:26.840Z,61.40
2023-03-16T06:13:30.817Z,61.52
2023-03-16T06:16:34.173Z,61.58
2023-03-16T06:19:37.621Z,61.66
2023-03-16T06:22:42.497Z,61.83
2023-03-16T06:25:50.244Z,61.95
2023-03-16T06:28:54.629Z,61.77
2023-03-16T06:31:58.208Z,61.86
2023-03-16T06:35:03.555Z,61.93
2023-03-16T06:38:07.388Z,61.99
2023-03-16T06:41:42.910Z,62.07
2023-03-16T06:44:47.899Z,62.16
2023-03-16T06:47:51.610Z,62.09
2023-03-16T06:50:55.241Z,62.20
2023-03-16T06:54:01.533Z,62.16
2023-03-16T06:57:05.832Z,62.08
2023-03-16T07:00:15.471Z,62.14
2023-03-16T07:03:19.474Z,62.15
2023-03-16T07:06:27.607Z,62.24
2023-03-16T07:09:31.685Z,62.25
2023-03-16T07:12:35.089Z,62.30
2023-03-16T07:15:38.415Z,62.39
2023-03-16T07:18:44.475Z,62.28
2023-03-16T07:21:49.481Z,62.28
2023-03-16T07:24:57.521Z,62.46
2023-03-16T07:28:01.947Z,62.42
2023-03-16T07:31:09.577Z,62.39
2023-03-16T07:34:15.186Z,62.32
2023-03-16T07:37:25.481Z,62.28
2023-03-16T07:40:30.973Z,62.33
2023-03-16T07:43:40.527Z,62.23
2023-03-16T07:46:45.819Z,62.17
2023-03-16T07:49:48.946Z,62.09
2023-03-16T07:52:52.329Z,62.08
2023-03-16T07:55:55.688Z,62.14
2023-03-16T07:58:58.879Z,62.13
2023-03-16T08:02:02.282Z,62.12
2023-03-16T08:05:06.121Z,62.15
2023-03-16T08:08:10.210Z,62.22
2023-03-16T08:11:14.796Z,62.08
2023-03-16T08:14:24.211Z,61.90
2023-03-16T08:17:37.813Z,61.74
2023-03-16T08:20:42.412Z,61.79
2023-03-16T08:23:49.200Z,61.78
2023-03-16T08:26:53.442Z,61.63
2023-03-16T08:29:56.726Z,61.52
2023-03-16T08:33:03.373Z,61.55
2023-03-16T08:36:08.716Z,61.65
2023-03-16T08:39:12.227Z,61.62
2023-03-16T08:42:20.358Z,61.38
2023-03-16T08:45:28.718Z,61.15
2023-03-16T08:48:34.723Z,60.77
2023-03-16T08:51:38.067Z,60.49
2023-03-16T08:54:49.776Z,60.25
2023-03-16T08:58:00.085Z,60.33
2023-03-16T09:01:05.836Z,60.41
2023-03-16T09:04:09.676Z,60.35
2023-03-16T09:07:13.632Z,60.12
2023-03-16T09:10:17.469Z,59.92
2023-03-16T09:13:20.703Z,59.85
2023-03-16T09:16:25.917Z,59.77
2023-03-16T09:19:34.836Z,59.53
2023-03-16T09:22:44.213Z,59.62
2023-03-16T09:25:48.201Z,59.59
2023-03-16T09:28:51.581Z,59.71
2023-03-16T09:31:54.957Z,59.77
2023-03-16T09:34:58.248Z,59.73
2023-03-16T09:38:05.938Z,59.78
2023-03-16T09:41:25.375Z,59.77
2023-03-16T09:44:50.562Z,59.49
2023-03-16T09:47:58.272Z,59.16
2023-03-16T09:51:05.605Z,59.03
2023-03-16T09:54:29.489Z,59.16
2023-03-16T09:57:36.868Z,59.18
2023-03-16T10:01:00.860Z,58.29
2023-03-16T10:04:07.649Z,58.00
2023-03-16T10:07:11.449Z,57.98
2023-03-16T10:10:18.406Z,57.70
2023-03-16T10:13:40.450Z,57.63
2023-03-16T10:17:01.614Z,57.40
2023-03-16T10:20:18.717Z,57.15
2023-03-16T10:23:24.760Z,56.61
2023-03-16T10:26:39.237Z,56.54
2023-03-16T10:29:42.304Z,56.64
2023-03-16T10:32:46.112Z,56.31
2023-03-16T10:36:05.757Z,55.83
2023-03-16T10:39:12.582Z,55.53
2023-03-16T10:42:18.631Z,55.39
2023-03-16T10:45:34.483Z,55.22
2023-03-16T10:48:39.164Z,54.75
2023-03-16T10:51:44.342Z,54.19
2023-03-16T10:55:00.001Z,53.83
2023-03-16T10:58:04.282Z,53.74
2023-03-16T11:01:21.775Z,53.90
2023-03-16T11:04:25.714Z,54.00
2023-03-16T11:07:28.910Z,54.04
2023-03-16T11:10:46.089Z,54.14
2023-03-16T11:14:00.173Z,54.36
2023-03-16T11:17:10.839Z,54.56
2023-03-16T11:20:24.030Z,54.11
2023-03-16T11:23:34.375Z,53.38
2023-03-16T11:26:42.999Z,52.94
2023-03-16T11:29:59.608Z,52.29
2023-03-16T11:33:04.213Z,51.49
2023-03-16T11:36:31.716Z,50.75
2023-03-16T11:39:42.978Z,50.52
2023-03-16T11:42:49.137Z,50.34
2023-03-16T11:46:02.858Z,49.98
2023-03-16T11:49:12.189Z,49.89
2023-03-16T11:52:33.440Z,49.62
2023-03-16T11:56:09.318Z,49.27
2023-03-16T11:59:31.081Z,49.16
2023-03-16T12:02:57.392Z,48.80
2023-03-16T12:06:16.876Z,48.77
2023-03-16T12:09:39.456Z,49.03
2023-03-16T12:12:56.131Z,48.96
2023-03-16T12:16:20.044Z,48.90
2023-03-16T12:19:32.264Z,48.85
2023-03-16T12:22:42.250Z,49.02
2023-03-16T12:25:47.742Z,48.45
2023-03-16T12:28:53.174Z,48.32
2023-03-16T12:32:09.888Z,48.01
2023-03-16T12:35:34.151Z,47.63
2023-03-16T12:38:54.363Z,47.46
2023-03-16T12:42:06.320Z,47.34
2023-03-16T12:45:28.342Z,47.05
2023-03-16T12:48:37.580Z,46.83
2023-03-16T12:51:43.531Z,46.81
2023-03-16T12:54:52.177Z,46.39
2023-03-16T12:58:02.241Z,45.68
2023-03-16T13:01:11.365Z,45.29
2023-03-16T13:04:21.577Z,44.88
2023-03-16T13:07:28.479Z,44.81
2023-03-16T13:10:31.732Z,45.01
2023-03-16T13:13:36.392Z,45.13
2023-03-16T13:16:41.033Z,45.03
2023-03-16T13:19:57.784Z,45.17
2023-03-16T13:23:22.462Z,45.30
2023-03-16T13:26:28.358Z,45.29
2023-03-16T13:29:33.506Z,45.11
2023-03-16T13:32:38.839Z,44.83
2023-03-16T13:35:42.235Z,44.48
2023-03-16T13:38:58.640Z,44.44
2023-03-16T13:42:12.816Z,44.53
2023-03-16T13:45:21.344Z,44.31
2023-03-16T13:48:25.211Z,44.31
2023-03-16T13:51:33.232Z,44.43
2023-03-16T13:54:37.345Z,44.27
2023-03-16T13:57:44.132Z,44.39
2023-03-16T14:00:47.296Z,44.13
2023-03-16T14:03:51.134Z,43.96
2023-03-16T14:07:03.889Z,43.75
2023-03-16T14:10:12.312Z,43.42
2023-03-16T14:13:33.013Z,43.22
2023-03-16T14:16:36.335Z,42.75
2023-03-16T14:19:46.724Z,42.58
2023-03-16T14:22:54.053Z,42.50
2023-03-16T14:25:57.429Z,42.45
2023-03-16T14:29:18.480Z,42.46
2023-03-16T14:32:30.392Z,42.42
2023-03-16T14:35:41.411Z,42.29
2023-03-16T14:38:48.866Z,42.34
2023-03-16T14:41:52.443Z,42.30
2023-03-16T14:45:00.510Z,42.27
2023-03-16T14:48:08.733Z,42.35
2023-03-16T14:51:14.741Z,42.37
2023-03-16T14:54:21.867Z,42.42
2023-03-16T14:57:28.751Z,42.27
2023-03-16T15:00:37.175Z,42.42
2023-03-16T15:03:46.649Z,42.50
2023-03-16T15:06:50.076Z,42.44
2023-03-16T15:09:55.375Z,42.46
2023-03-16T15:13:06.162Z,42.54
2023-03-16T15:16:14.207Z,42.61
2023-03-16T15:19:17.436Z,42.59
2023-03-16T15:22:39.355Z,42.44
2023-03-16T15:25:48.232Z,42.64
2023-03-16T15:28:51.249Z,42.55
2023-03-16T15:31:54.750Z,42.50
2023-03-16T15:34:58.312Z,42.39
2023-03-16T15:38:05.072Z,42.43
2023-03-16T15:41:11.733Z,42.15
2023-03-16T15:44:14.958Z,42.16
2023-03-16T15:47:17.998Z,42.03
2023-03-16T15:50:24.816Z,42.06
2023-03-16T15:53:40.077Z,42.24
2023-03-16T15:56:53.824Z,42.18
2023-03-16T16:00:00.214Z,42.40
2023-03-16T16:03:05.496Z,42.32
2023-03-16T16:06:11.781Z,42.27
2023-03-16T16:09:15.788Z,42.40
2023-03-16T16:12:21.432Z,42.50
2023-03-16T16:15:38.326Z,42.39
2023-03-16T16:18:41.889Z,42.44
2023-03-16T16:21:46.443Z,42.46
2023-03-16T16:24:49.377Z,42.36
2023-03-16T16:27:52.395Z,42.40
2023-03-16T16:30:56.815Z,42.57
2023-03-16T16:33:59.984Z,42.65
2023-03-16T16:37:03.073Z,42.97
2023-03-16T16:40:06.631Z,43.59
2023-03-16T16:43:14.239Z,44.13
2023-03-16T16:46:24.050Z,44.19
2023-03-16T16:49:30.653Z,44.29
2023-03-16T16:52:33.699Z,44.72
2023-03-16T16:55:36.747Z,44.83
2023-03-16T16:58:40.692Z,45.12
2023-03-16T17:01:47.410Z,45.22
2023-03-16T17:04:53.715Z,45.32
2023-03-16T17:07:56.728Z,45.42
2023-03-16T17:11:00.092Z,45.47
2023-03-16T17:14:05.987Z,45.49
2023-03-16T17:17:17.568Z,45.52
2023-03-16T17:20:25.461Z,45.72
2023-03-16T17:23:35.121Z,45.86
2023-03-16T17:26:43.889Z,46.18
2023-03-16T17:29:46.969Z,46.52
2023-03-16T17:32:52.050Z,46.68
2023-03-16T17:35:55.243Z,46.76
2023-03-16T17:39:00.212Z,46.82
2023-03-16T17:42:13.791Z,46.86
2023-03-16T17:45:24.200Z,47.12
2023-03-16T17:48:27.186Z,47.13
2023-03-16T17:51:32.345Z,47.36
2023-03-16T17:54:35.337Z,47.53
2023-03-16T17:57:38.684Z,47.73
2023-03-16T18:00:42.452Z,47.94
2023-03-16T18:03:46.185Z,47.95
2023-03-16T18:06:49.724Z,48.04
2023-03-16T18:09:53.163Z,48.17
2023-03-16T18:13:00.792Z,48.57
2023-03-16T18:16:06.151Z,48.67
2023-03-16T18:19:21.546Z,48.82
2023-03-16T18:22:25.053Z,48.89
2023-03-16T18:25:30.524Z,49.14
2023-03-16T18:28:34.823Z,49.22
2023-03-16T18:31:37.917Z,49.33
2023-03-16T18:34:42.186Z,49.40
2023-03-16T18:37:45.295Z,49.46
2023-03-16T18:40:48.583Z,49.52
2023-03-16T18:43:55.066Z,49.78
2023-03-16T18:47:02.973Z,49.78
2023-03-16T18:50:28.781Z,49.96
2023-03-16T18:53:32.799Z,50.06
2023-03-16T18:56:43.171Z,50.25
2023-03-16T18:59:47.899Z,50.18
2023-03-16T19:02:58.904Z,50.28
2023-03-16T19:06:02.206Z,50.46
2023-03-16T19:09:13.713Z,50.53
2023-03-16T19:12:18.322Z,50.63
2023-03-16T19:15:34.002Z,50.68
2023-03-16T19:18:45.846Z,50.87
2023-03-16T19:21:51.839Z,50.95
2023-03-16T19:24:56.115Z,50.94
2023-03-16T19:28:00.144Z,51.02
2023-03-16T19:31:20.457Z,51.09
2023-03-16T19:34:24.033Z,51.26
2023-03-16T19:37:30.080Z,51.34
2023-03-16T19:40:33.072Z,51.32
2023-03-16T19:43:36.191Z,51.42
2023-03-16T19:46:40.059Z,51.52
2023-03-16T19:49:43.051Z,51.68
2023-03-16T19:52:46.996Z,51.85
2023-03-16T19:55:52.317Z,51.81
2023-03-16T19:58:56.303Z,51.77
2023-03-16T20:02:00.150Z,51.78
2023-03-16T20:05:03.695Z,52.01
2023-03-16T20:08:28.010Z,51.95
2023-03-16T20:11:32.389Z,52.14
2023-03-16T20:14:35.458Z,52.24
2023-03-16T20:17:38.595Z,52.17
2023-03-16T20:20:43.350Z,52.19
2023-03-16T20:23:46.400Z,52.33
2023-03-16T20:26:51.445Z,52.43
2023-03-16T20:29:54.538Z,52.59
2023-03-16T20:32:57.724Z,52.49
2023-03-16T20:36:01.251Z,52.48
2023-03-16T20:39:04.357Z,52.39
2023-03-16T20:42:16.913Z,52.59
2023-03-16T20:45:26.183Z,52.52
2023-03-16T20:48:29.467Z,52.66
2023-03-16T20:51:32.863Z,52.81
2023-03-16T20:54:35.956Z,52.92
2023-03-16T20:57:40.200Z,53.01
2023-03-16T21:00:44.394Z,53.12
2023-03-16T21:03:58.628Z,53.11
2023-03-16T21:07:01.587Z,53.04
2023-03-16T21:10:05.068Z,53.21
2023-03-16T21:13:17.469Z,53.21
2023-03-16T21:16:21.820Z,53.33
2023-03-16T21:19:25.104Z,53.38
2023-03-16T21:22:31.274Z,53.39
2023-03-16T21:25:40.559Z,53.50
2023-03-16T21:28:46.524Z,53.55
2023-03-16T21:31:49.913Z,53.64
2023-03-16T21:34:54.665Z,53.63
2023-03-16T21:37:58.153Z,53.72
2023-03-16T21:41:01.273Z,53.76
2023-03-16T21:44:04.325Z,53.74
2023-03-16T21:47:26.213Z,53.76
2023-03-16T21:50:33.412Z,53.89
2023-03-16T21:53:36.440Z,53.98
2023-03-16T21:56:39.416Z,53.88
2023-03-16T21:59:42.523Z,54.00
2023-03-16T22:02:47.596Z,54.09
2023-03-16T22:05:51.180Z,54.14
2023-03-16T22:08:55.618Z,54.33
2023-03-16T22:11:58.642Z,54.30
2023-03-16T22:15:01.750Z,54.29
2023-03-16T22:18:08.802Z,54.45
2023-03-16T22:21:30.026Z,54.45
2023-03-16T22:24:35.834Z,54.55
2023-03-16T22:27:39.050Z,54.52
2023-03-16T22:30:42.934Z,54.61
2023-03-16T22:33:48.742Z,54.69
2023-03-16T22:36:52.155Z,54.66
2023-03-16T22:39:57.408Z,54.58
2023-03-16T22:43:04.546Z,54.64
2023-03-16T22:46:23.420Z,54.54
2023-03-16T22:49:28.598Z,54.63
2023-03-16T22:52:35.231Z,54.61
2023-03-16T22:55:40.332Z,54.74
2023-03-16T22:58:51.330Z,54.56
2023-03-16T23:01:54.416Z,54.57
2023-03-16T23:04:57.642Z,54.49
2023-03-16T23:08:02.655Z,54.60
2023-03-16T23:11:05.748Z,54.64
2023-03-16T23:14:23.684Z,54.70
2023-03-16T23:17:27.086Z,54.75
2023-03-16T23:20:33.558Z,54.79
2023-03-16T23:23:36.624Z,54.88
2023-03-16T23:26:39.720Z,54.81
2023-03-16T23:29:42.857Z,54.80
2023-03-16T23:32:45.952Z,54.77
2023-03-16T23:35:48.986Z,54.86
2023-03-16T23:38:52.237Z,54.94
2023-03-16T23:41:56.338Z,55.01
2023-03-16T23:45:07.760Z,55.03
2023-03-16T23:48:15.415Z,55.10
2023-03-16T23:51:25.814Z,55.12
2023-03-16T23:54:31.696Z,55.12
2023-03-16T23:57:34.739Z,55.10
